sensor_id;sensor_type;location;lat;lon;timestamp;P1;durP1;ratioP1;P2;durP2;ratioP2
75456;SDS011;64036;48.266;14.192;2023-12-20T00:01:42;7.40;;;4.20;;
75456;SDS011;64036;48.266;14.192;2023-12-20T00:04:08;8.40;;;4.50;;
75456;SDS011;64036;48.266;14.192;2023-12-20T00:06:34;7.40;;;4.30;;
75456;SDS011;64036;48.266;14.192;2023-12-20T00:09:00;7.20;;;3.80;;
75456;SDS011;64036;48.266;14.192;2023-12-20T00:11:26;8.50;;;4.40;;
75456;SDS011;64036;48.266;14.192;2023-12-20T00:13:52;7.20;;;4.20;;
75456;SDS011;64036;48.266;14.192;2023-12-20T00:16:18;6.50;;;4.00;;
75456;SDS011;64036;48.266;14.192;2023-12-20T00:18:57;6.60;;;4.00;;
75456;SDS011;64036;48.266;14.192;2023-12-20T00:21:41;5.90;;;3.80;;
75456;SDS011;64036;48.266;14.192;2023-12-20T00:24:40;6.60;;;3.60;;
75456;SDS011;64036;48.266;14.192;2023-12-20T00:30:15;5.20;;;3.40;;
75456;SDS011;64036;48.266;14.192;2023-12-20T00:32:46;5.50;;;3.20;;
75456;SDS011;64036;48.266;14.192;2023-12-20T00:35:13;5.00;;;2.90;;
75456;SDS011;64036;48.266;14.192;2023-12-20T00:37:40;9.40;;;3.60;;
75456;SDS011;64036;48.266;14.192;2023-12-20T00:40:20;7.80;;;4.40;;
75456;SDS011;64036;48.266;14.192;2023-12-20T00:43:00;7.00;;;4.50;;
75456;SDS011;64036;48.266;14.192;2023-12-20T00:45:55;6.40;;;3.80;;
75456;SDS011;64036;48.266;14.192;2023-12-20T00:48:35;7.60;;;4.40;;
75456;SDS011;64036;48.266;14.192;2023-12-20T00:51:09;8.70;;;5.20;;
75456;SDS011;64036;48.266;14.192;2023-12-20T00:53:40;9.80;;;5.60;;
75456;SDS011;64036;48.266;14.192;2023-12-20T00:56:06;9.80;;;5.80;;
75456;SDS011;64036;48.266;14.192;2023-12-20T00:58:32;10.70;;;6.60;;
75456;SDS011;64036;48.266;14.192;2023-12-20T01:00:57;12.00;;;6.70;;
75456;SDS011;64036;48.266;14.192;2023-12-20T01:03:23;12.60;;;6.70;;
75456;SDS011;64036;48.266;14.192;2023-12-20T01:05:55;10.30;;;5.60;;
75456;SDS011;64036;48.266;14.192;2023-12-20T01:08:20;10.40;;;6.00;;
75456;SDS011;64036;48.266;14.192;2023-12-20T01:10:46;8.70;;;5.40;;
75456;SDS011;64036;48.266;14.192;2023-12-20T01:13:12;9.80;;;6.00;;
75456;SDS011;64036;48.266;14.192;2023-12-20T01:15:41;9.20;;;6.50;;
75456;SDS011;64036;48.266;14.192;2023-12-20T01:18:12;9.60;;;5.30;;
75456;SDS011;64036;48.266;14.192;2023-12-20T01:20:46;7.90;;;4.10;;
75456;SDS011;64036;48.266;14.192;2023-12-20T01:23:31;7.30;;;4.40;;
75456;SDS011;64036;48.266;14.192;2023-12-20T01:25:58;6.60;;;4.10;;
75456;SDS011;64036;48.266;14.192;2023-12-20T01:28:29;7.30;;;4.50;;
75456;SDS011;64036;48.266;14.192;2023-12-20T01:30:55;8.70;;;4.60;;
75456;SDS011;64036;48.266;14.192;2023-12-20T01:33:21;8.50;;;5.10;;
75456;SDS011;64036;48.266;14.192;2023-12-20T01:35:47;10.50;;;5.80;;
75456;SDS011;64036;48.266;14.192;2023-12-20T01:38:13;7.60;;;4.70;;
75456;SDS011;64036;48.266;14.192;2023-12-20T01:40:38;9.00;;;5.10;;
75456;SDS011;64036;48.266;14.192;2023-12-20T01:43:14;8.40;;;4.40;;
75456;SDS011;64036;48.266;14.192;2023-12-20T01:45:50;6.70;;;4.00;;
75456;SDS011;64036;48.266;14.192;2023-12-20T01:48:26;8.40;;;5.30;;
75456;SDS011;64036;48.266;14.192;2023-12-20T01:50:53;8.20;;;4.80;;
75456;SDS011;64036;48.266;14.192;2023-12-20T01:53:32;8.80;;;5.60;;
75456;SDS011;64036;48.266;14.192;2023-12-20T01:59:14;7.60;;;4.70;;
75456;SDS011;64036;48.266;14.192;2023-12-20T02:01:40;11.40;;;6.60;;
75456;SDS011;64036;48.266;14.192;2023-12-20T02:04:06;9.80;;;6.40;;
75456;SDS011;64036;48.266;14.192;2023-12-20T02:06:33;11.50;;;6.30;;
75456;SDS011;64036;48.266;14.192;2023-12-20T02:09:07;11.80;;;6.10;;
75456;SDS011;64036;48.266;14.192;2023-12-20T02:11:55;9.30;;;6.00;;
75456;SDS011;64036;48.266;14.192;2023-12-20T02:14:26;9.50;;;5.50;;
75456;SDS011;64036;48.266;14.192;2023-12-20T02:17:04;8.90;;;5.60;;
75456;SDS011;64036;48.266;14.192;2023-12-20T02:20:05;8.80;;;5.40;;
75456;SDS011;64036;48.266;14.192;2023-12-20T02:23:01;9.70;;;5.50;;
75456;SDS011;64036;48.266;14.192;2023-12-20T02:25:37;11.20;;;4.80;;
75456;SDS011;64036;48.266;14.192;2023-12-20T02:31:31;10.80;;;5.60;;
75456;SDS011;64036;48.266;14.192;2023-12-20T02:34:07;9.00;;;4.90;;
75456;SDS011;64036;48.266;14.192;2023-12-20T02:36:37;7.80;;;4.90;;
75456;SDS011;64036;48.266;14.192;2023-12-20T02:39:02;8.70;;;4.90;;
75456;SDS011;64036;48.266;14.192;2023-12-20T02:41:29;9.00;;;5.10;;
75456;SDS011;64036;48.266;14.192;2023-12-20T02:44:11;7.60;;;4.50;;
75456;SDS011;64036;48.266;14.192;2023-12-20T02:47:09;7.70;;;4.60;;
75456;SDS011;64036;48.266;14.192;2023-12-20T02:49:44;8.00;;;4.80;;
75456;SDS011;64036;48.266;14.192;2023-12-20T02:52:31;8.30;;;5.40;;
75456;SDS011;64036;48.266;14.192;2023-12-20T02:55:08;8.40;;;5.00;;
75456;SDS011;64036;48.266;14.192;2023-12-20T02:57:58;8.40;;;5.50;;
75456;SDS011;64036;48.266;14.192;2023-12-20T03:00:39;9.40;;;4.60;;
75456;SDS011;64036;48.266;14.192;2023-12-20T03:03:17;7.20;;;4.50;;
75456;SDS011;64036;48.266;14.192;2023-12-20T03:05:49;8.40;;;5.60;;
75456;SDS011;64036;48.266;14.192;2023-12-20T03:08:48;8.60;;;5.00;;
75456;SDS011;64036;48.266;14.192;2023-12-20T03:11:14;8.50;;;4.60;;
75456;SDS011;64036;48.266;14.192;2023-12-20T03:13:45;9.30;;;5.80;;
75456;SDS011;64036;48.266;14.192;2023-12-20T03:16:12;9.00;;;5.50;;
75456;SDS011;64036;48.266;14.192;2023-12-20T03:18:39;9.80;;;6.30;;
75456;SDS011;64036;48.266;14.192;2023-12-20T03:21:14;8.30;;;5.60;;
75456;SDS011;64036;48.266;14.192;2023-12-20T03:23:42;10.10;;;5.60;;
75456;SDS011;64036;48.266;14.192;2023-12-20T03:26:09;9.00;;;5.20;;
75456;SDS011;64036;48.266;14.192;2023-12-20T03:28:44;9.00;;;5.80;;
75456;SDS011;64036;48.266;14.192;2023-12-20T03:31:10;11.30;;;6.30;;
75456;SDS011;64036;48.266;14.192;2023-12-20T03:33:36;9.50;;;5.80;;
75456;SDS011;64036;48.266;14.192;2023-12-20T03:36:02;8.60;;;6.00;;
75456;SDS011;64036;48.266;14.192;2023-12-20T03:38:27;9.40;;;5.80;;
75456;SDS011;64036;48.266;14.192;2023-12-20T03:40:53;8.60;;;6.10;;
75456;SDS011;64036;48.266;14.192;2023-12-20T03:43:24;10.40;;;5.60;;
75456;SDS011;64036;48.266;14.192;2023-12-20T03:46:00;9.30;;;5.90;;
75456;SDS011;64036;48.266;14.192;2023-12-20T03:48:34;8.90;;;5.20;;
75456;SDS011;64036;48.266;14.192;2023-12-20T03:51:10;8.70;;;5.40;;
75456;SDS011;64036;48.266;14.192;2023-12-20T03:53:49;9.90;;;5.40;;
75456;SDS011;64036;48.266;14.192;2023-12-20T03:56:15;8.60;;;5.10;;
75456;SDS011;64036;48.266;14.192;2023-12-20T03:58:44;8.00;;;4.80;;
75456;SDS011;64036;48.266;14.192;2023-12-20T04:01:15;7.30;;;4.40;;
75456;SDS011;64036;48.266;14.192;2023-12-20T04:03:44;8.60;;;5.20;;
75456;SDS011;64036;48.266;14.192;2023-12-20T04:06:21;8.60;;;5.30;;
75456;SDS011;64036;48.266;14.192;2023-12-20T04:08:50;7.30;;;4.70;;
75456;SDS011;64036;48.266;14.192;2023-12-20T04:11:20;9.20;;;5.00;;
75456;SDS011;64036;48.266;14.192;2023-12-20T04:13:46;7.10;;;4.40;;
75456;SDS011;64036;48.266;14.192;2023-12-20T04:16:12;6.30;;;4.20;;
75456;SDS011;64036;48.266;14.192;2023-12-20T04:18:40;8.10;;;4.60;;
75456;SDS011;64036;48.266;14.192;2023-12-20T04:21:19;6.90;;;4.10;;
75456;SDS011;64036;48.266;14.192;2023-12-20T04:23:48;7.70;;;4.90;;
75456;SDS011;64036;48.266;14.192;2023-12-20T04:26:29;8.50;;;4.50;;
75456;SDS011;64036;48.266;14.192;2023-12-20T04:28:54;7.60;;;4.40;;
75456;SDS011;64036;48.266;14.192;2023-12-20T04:31:23;7.00;;;4.60;;
75456;SDS011;64036;48.266;14.192;2023-12-20T04:33:49;5.40;;;3.80;;
75456;SDS011;64036;48.266;14.192;2023-12-20T04:36:21;6.80;;;3.70;;
75456;SDS011;64036;48.266;14.192;2023-12-20T04:38:50;7.00;;;4.00;;
75456;SDS011;64036;48.266;14.192;2023-12-20T04:41:18;7.50;;;4.20;;
75456;SDS011;64036;48.266;14.192;2023-12-20T04:43:44;6.40;;;4.20;;
75456;SDS011;64036;48.266;14.192;2023-12-20T04:46:10;6.80;;;4.30;;
75456;SDS011;64036;48.266;14.192;2023-12-20T04:48:44;7.30;;;4.50;;
75456;SDS011;64036;48.266;14.192;2023-12-20T04:51:23;8.30;;;5.80;;
75456;SDS011;64036;48.266;14.192;2023-12-20T04:53:55;8.50;;;5.60;;
75456;SDS011;64036;48.266;14.192;2023-12-20T04:56:25;9.30;;;5.70;;
75456;SDS011;64036;48.266;14.192;2023-12-20T04:58:51;8.40;;;5.20;;
75456;SDS011;64036;48.266;14.192;2023-12-20T05:01:23;7.60;;;5.20;;
75456;SDS011;64036;48.266;14.192;2023-12-20T05:03:51;8.20;;;5.60;;
75456;SDS011;64036;48.266;14.192;2023-12-20T05:06:17;8.10;;;5.40;;
75456;SDS011;64036;48.266;14.192;2023-12-20T05:08:43;7.50;;;4.70;;
75456;SDS011;64036;48.266;14.192;2023-12-20T05:11:25;8.20;;;5.40;;
75456;SDS011;64036;48.266;14.192;2023-12-20T05:14:00;7.90;;;4.60;;
75456;SDS011;64036;48.266;14.192;2023-12-20T05:16:25;8.10;;;5.30;;
75456;SDS011;64036;48.266;14.192;2023-12-20T05:18:54;8.50;;;5.60;;
75456;SDS011;64036;48.266;14.192;2023-12-20T05:21:24;7.30;;;4.40;;
75456;SDS011;64036;48.266;14.192;2023-12-20T05:23:55;7.50;;;4.50;;
75456;SDS011;64036;48.266;14.192;2023-12-20T05:26:24;7.70;;;5.50;;
75456;SDS011;64036;48.266;14.192;2023-12-20T05:29:02;6.80;;;4.30;;
75456;SDS011;64036;48.266;14.192;2023-12-20T05:31:31;8.20;;;3.90;;
75456;SDS011;64036;48.266;14.192;2023-12-20T05:33:57;6.30;;;3.90;;
75456;SDS011;64036;48.266;14.192;2023-12-20T05:36:23;7.00;;;3.70;;
75456;SDS011;64036;48.266;14.192;2023-12-20T05:38:49;7.10;;;4.60;;
75456;SDS011;64036;48.266;14.192;2023-12-20T05:41:15;6.90;;;4.70;;
75456;SDS011;64036;48.266;14.192;2023-12-20T05:43:41;7.80;;;4.80;;
75456;SDS011;64036;48.266;14.192;2023-12-20T05:46:10;8.20;;;5.30;;
75456;SDS011;64036;48.266;14.192;2023-12-20T05:48:37;7.80;;;4.40;;
75456;SDS011;64036;48.266;14.192;2023-12-20T05:51:03;7.20;;;4.90;;
75456;SDS011;64036;48.266;14.192;2023-12-20T05:53:43;6.00;;;3.60;;
75456;SDS011;64036;48.266;14.192;2023-12-20T05:56:21;8.50;;;5.10;;
75456;SDS011;64036;48.266;14.192;2023-12-20T06:01:16;8.70;;;5.20;;
75456;SDS011;64036;48.266;14.192;2023-12-20T06:03:54;7.70;;;4.20;;
75456;SDS011;64036;48.266;14.192;2023-12-20T06:06:28;7.30;;;4.10;;
75456;SDS011;64036;48.266;14.192;2023-12-20T06:08:57;6.20;;;4.40;;
75456;SDS011;64036;48.266;14.192;2023-12-20T06:11:23;8.00;;;4.70;;
75456;SDS011;64036;48.266;14.192;2023-12-20T06:14:01;7.00;;;4.10;;
75456;SDS011;64036;48.266;14.192;2023-12-20T06:16:28;7.00;;;4.40;;
75456;SDS011;64036;48.266;14.192;2023-12-20T06:19:00;8.80;;;4.80;;
75456;SDS011;64036;48.266;14.192;2023-12-20T06:21:41;8.40;;;5.00;;
75456;SDS011;64036;48.266;14.192;2023-12-20T06:24:06;8.10;;;4.90;;
75456;SDS011;64036;48.266;14.192;2023-12-20T06:26:38;7.50;;;4.80;;
75456;SDS011;64036;48.266;14.192;2023-12-20T06:29:04;7.10;;;4.50;;
75456;SDS011;64036;48.266;14.192;2023-12-20T06:31:29;8.10;;;4.70;;
75456;SDS011;64036;48.266;14.192;2023-12-20T06:33:57;8.30;;;4.30;;
75456;SDS011;64036;48.266;14.192;2023-12-20T06:36:25;7.90;;;4.90;;
75456;SDS011;64036;48.266;14.192;2023-12-20T06:38:54;6.20;;;4.20;;
75456;SDS011;64036;48.266;14.192;2023-12-20T06:41:19;8.60;;;5.10;;
75456;SDS011;64036;48.266;14.192;2023-12-20T06:43:45;7.40;;;4.70;;
75456;SDS011;64036;48.266;14.192;2023-12-20T06:46:11;8.30;;;5.40;;
75456;SDS011;64036;48.266;14.192;2023-12-20T06:48:38;7.80;;;4.60;;
75456;SDS011;64036;48.266;14.192;2023-12-20T06:51:05;7.80;;;4.80;;
75456;SDS011;64036;48.266;14.192;2023-12-20T06:53:36;8.20;;;5.40;;
75456;SDS011;64036;48.266;14.192;2023-12-20T06:56:02;7.40;;;5.10;;
75456;SDS011;64036;48.266;14.192;2023-12-20T06:58:27;8.20;;;5.40;;
75456;SDS011;64036;48.266;14.192;2023-12-20T07:00:53;8.60;;;5.40;;
75456;SDS011;64036;48.266;14.192;2023-12-20T07:03:19;9.60;;;6.00;;
75456;SDS011;64036;48.266;14.192;2023-12-20T07:05:48;10.20;;;6.00;;
75456;SDS011;64036;48.266;14.192;2023-12-20T07:08:13;8.30;;;5.70;;
75456;SDS011;64036;48.266;14.192;2023-12-20T07:10:41;10.70;;;6.30;;
75456;SDS011;64036;48.266;14.192;2023-12-20T07:13:10;8.70;;;5.20;;
75456;SDS011;64036;48.266;14.192;2023-12-20T07:15:39;9.10;;;5.70;;
75456;SDS011;64036;48.266;14.192;2023-12-20T07:18:05;7.70;;;5.20;;
75456;SDS011;64036;48.266;14.192;2023-12-20T07:20:31;8.10;;;4.60;;
75456;SDS011;64036;48.266;14.192;2023-12-20T07:22:57;7.40;;;4.70;;
75456;SDS011;64036;48.266;14.192;2023-12-20T07:25:26;6.60;;;4.10;;
75456;SDS011;64036;48.266;14.192;2023-12-20T07:27:58;7.50;;;4.40;;
75456;SDS011;64036;48.266;14.192;2023-12-20T07:30:23;6.00;;;3.30;;
75456;SDS011;64036;48.266;14.192;2023-12-20T07:32:49;6.30;;;3.40;;
75456;SDS011;64036;48.266;14.192;2023-12-20T07:35:18;5.90;;;3.40;;
75456;SDS011;64036;48.266;14.192;2023-12-20T07:37:44;7.60;;;3.70;;
75456;SDS011;64036;48.266;14.192;2023-12-20T07:40:10;5.10;;;3.40;;
75456;SDS011;64036;48.266;14.192;2023-12-20T07:42:36;5.70;;;3.90;;
75456;SDS011;64036;48.266;14.192;2023-12-20T07:45:03;5.80;;;3.50;;
75456;SDS011;64036;48.266;14.192;2023-12-20T07:47:29;5.20;;;2.90;;
75456;SDS011;64036;48.266;14.192;2023-12-20T07:49:57;4.90;;;2.60;;
75456;SDS011;64036;48.266;14.192;2023-12-20T07:52:23;4.30;;;2.50;;
75456;SDS011;64036;48.266;14.192;2023-12-20T07:54:49;4.60;;;2.20;;
75456;SDS011;64036;48.266;14.192;2023-12-20T07:57:14;3.70;;;2.20;;
75456;SDS011;64036;48.266;14.192;2023-12-20T07:59:43;4.00;;;2.20;;
75456;SDS011;64036;48.266;14.192;2023-12-20T08:02:13;3.00;;;1.90;;
75456;SDS011;64036;48.266;14.192;2023-12-20T08:04:42;3.70;;;1.90;;
75456;SDS011;64036;48.266;14.192;2023-12-20T08:07:07;3.30;;;2.10;;
75456;SDS011;64036;48.266;14.192;2023-12-20T08:09:33;2.90;;;1.90;;
75456;SDS011;64036;48.266;14.192;2023-12-20T08:12:04;2.80;;;2.20;;
75456;SDS011;64036;48.266;14.192;2023-12-20T08:14:31;3.10;;;1.90;;
75456;SDS011;64036;48.266;14.192;2023-12-20T08:16:59;2.10;;;1.70;;
75456;SDS011;64036;48.266;14.192;2023-12-20T08:19:28;3.20;;;2.00;;
75456;SDS011;64036;48.266;14.192;2023-12-20T08:21:53;3.30;;;2.10;;
75456;SDS011;64036;48.266;14.192;2023-12-20T08:24:22;3.30;;;2.10;;
75456;SDS011;64036;48.266;14.192;2023-12-20T08:26:48;3.70;;;1.90;;
75456;SDS011;64036;48.266;14.192;2023-12-20T08:29:14;3.30;;;1.80;;
75456;SDS011;64036;48.266;14.192;2023-12-20T08:31:39;2.40;;;1.70;;
75456;SDS011;64036;48.266;14.192;2023-12-20T08:34:05;3.50;;;1.90;;
75456;SDS011;64036;48.266;14.192;2023-12-20T08:36:31;3.20;;;2.00;;
75456;SDS011;64036;48.266;14.192;2023-12-20T08:38:59;2.80;;;2.00;;
75456;SDS011;64036;48.266;14.192;2023-12-20T08:41:26;2.60;;;1.70;;
75456;SDS011;64036;48.266;14.192;2023-12-20T08:43:51;3.30;;;2.00;;
75456;SDS011;64036;48.266;14.192;2023-12-20T08:46:17;3.60;;;2.00;;
75456;SDS011;64036;48.266;14.192;2023-12-20T08:48:43;3.40;;;2.00;;
75456;SDS011;64036;48.266;14.192;2023-12-20T08:51:10;2.90;;;1.80;;
75456;SDS011;64036;48.266;14.192;2023-12-20T08:53:35;3.80;;;2.00;;
75456;SDS011;64036;48.266;14.192;2023-12-20T08:56:01;3.80;;;1.90;;
75456;SDS011;64036;48.266;14.192;2023-12-20T08:58:30;3.10;;;2.00;;
75456;SDS011;64036;48.266;14.192;2023-12-20T09:00:56;3.50;;;2.10;;
75456;SDS011;64036;48.266;14.192;2023-12-20T09:03:22;4.20;;;2.40;;
75456;SDS011;64036;48.266;14.192;2023-12-20T09:05:48;3.10;;;1.70;;
75456;SDS011;64036;48.266;14.192;2023-12-20T09:08:14;3.30;;;1.90;;
75456;SDS011;64036;48.266;14.192;2023-12-20T09:10:40;3.10;;;2.20;;
75456;SDS011;64036;48.266;14.192;2023-12-20T09:13:06;3.30;;;2.00;;
75456;SDS011;64036;48.266;14.192;2023-12-20T09:15:31;3.30;;;1.90;;
75456;SDS011;64036;48.266;14.192;2023-12-20T09:17:59;4.00;;;2.00;;
75456;SDS011;64036;48.266;14.192;2023-12-20T09:20:28;3.90;;;2.10;;
75456;SDS011;64036;48.266;14.192;2023-12-20T09:22:57;3.50;;;2.10;;
75456;SDS011;64036;48.266;14.192;2023-12-20T09:25:23;2.80;;;2.00;;
75456;SDS011;64036;48.266;14.192;2023-12-20T09:27:49;4.00;;;2.40;;
75456;SDS011;64036;48.266;14.192;2023-12-20T09:30:14;4.30;;;2.20;;
75456;SDS011;64036;48.266;14.192;2023-12-20T09:32:40;3.80;;;2.20;;
75456;SDS011;64036;48.266;14.192;2023-12-20T09:35:09;3.30;;;2.20;;
75456;SDS011;64036;48.266;14.192;2023-12-20T09:40:07;3.40;;;2.10;;
75456;SDS011;64036;48.266;14.192;2023-12-20T09:42:44;3.80;;;2.30;;
75456;SDS011;64036;48.266;14.192;2023-12-20T09:45:13;4.00;;;2.20;;
75456;SDS011;64036;48.266;14.192;2023-12-20T09:47:47;4.20;;;2.50;;
75456;SDS011;64036;48.266;14.192;2023-12-20T09:50:17;2.70;;;1.90;;
75456;SDS011;64036;48.266;14.192;2023-12-20T09:52:44;3.20;;;2.00;;
75456;SDS011;64036;48.266;14.192;2023-12-20T09:55:12;3.10;;;2.00;;
75456;SDS011;64036;48.266;14.192;2023-12-20T09:57:39;2.80;;;2.10;;
75456;SDS011;64036;48.266;14.192;2023-12-20T10:00:05;3.00;;;2.10;;
75456;SDS011;64036;48.266;14.192;2023-12-20T10:02:32;3.90;;;2.50;;
75456;SDS011;64036;48.266;14.192;2023-12-20T10:05:00;5.70;;;2.10;;
75456;SDS011;64036;48.266;14.192;2023-12-20T10:07:26;3.70;;;2.10;;
75456;SDS011;64036;48.266;14.192;2023-12-20T10:09:54;4.40;;;2.10;;
75456;SDS011;64036;48.266;14.192;2023-12-20T10:12:21;2.90;;;1.90;;
75456;SDS011;64036;48.266;14.192;2023-12-20T10:14:46;2.80;;;1.90;;
75456;SDS011;64036;48.266;14.192;2023-12-20T10:17:12;3.10;;;2.00;;
75456;SDS011;64036;48.266;14.192;2023-12-20T10:19:38;3.30;;;1.90;;
75456;SDS011;64036;48.266;14.192;2023-12-20T10:22:04;4.20;;;2.30;;
75456;SDS011;64036;48.266;14.192;2023-12-20T10:24:30;2.70;;;1.90;;
75456;SDS011;64036;48.266;14.192;2023-12-20T10:27:06;2.80;;;1.80;;
75456;SDS011;64036;48.266;14.192;2023-12-20T10:29:37;3.50;;;2.00;;
75456;SDS011;64036;48.266;14.192;2023-12-20T10:32:27;3.20;;;2.20;;
75456;SDS011;64036;48.266;14.192;2023-12-20T10:34:56;3.50;;;2.20;;
75456;SDS011;64036;48.266;14.192;2023-12-20T10:37:22;3.00;;;2.00;;
75456;SDS011;64036;48.266;14.192;2023-12-20T10:39:52;3.50;;;2.10;;
75456;SDS011;64036;48.266;14.192;2023-12-20T10:42:22;3.00;;;2.10;;
75456;SDS011;64036;48.266;14.192;2023-12-20T10:44:50;4.20;;;2.30;;
75456;SDS011;64036;48.266;14.192;2023-12-20T10:47:17;2.70;;;1.90;;
75456;SDS011;64036;48.266;14.192;2023-12-20T10:49:43;2.70;;;1.80;;
75456;SDS011;64036;48.266;14.192;2023-12-20T10:52:11;3.10;;;1.80;;
75456;SDS011;64036;48.266;14.192;2023-12-20T10:54:39;3.20;;;2.00;;
75456;SDS011;64036;48.266;14.192;2023-12-20T10:57:06;2.90;;;1.90;;
75456;SDS011;64036;48.266;14.192;2023-12-20T10:59:33;2.30;;;1.60;;
75456;SDS011;64036;48.266;14.192;2023-12-20T11:02:05;2.50;;;1.80;;
75456;SDS011;64036;48.266;14.192;2023-12-20T11:04:47;1.90;;;1.60;;
75456;SDS011;64036;48.266;14.192;2023-12-20T11:07:33;2.60;;;1.70;;
75456;SDS011;64036;48.266;14.192;2023-12-20T11:10:23;2.90;;;1.70;;
75456;SDS011;64036;48.266;14.192;2023-12-20T11:12:54;1.80;;;1.50;;
75456;SDS011;64036;48.266;14.192;2023-12-20T11:15:22;2.60;;;1.70;;
75456;SDS011;64036;48.266;14.192;2023-12-20T11:17:57;2.20;;;1.60;;
75456;SDS011;64036;48.266;14.192;2023-12-20T11:20:24;3.20;;;1.70;;
75456;SDS011;64036;48.266;14.192;2023-12-20T11:23:01;2.50;;;1.60;;
75456;SDS011;64036;48.266;14.192;2023-12-20T11:25:27;2.30;;;1.60;;
75456;SDS011;64036;48.266;14.192;2023-12-20T11:28:11;2.30;;;1.60;;
75456;SDS011;64036;48.266;14.192;2023-12-20T11:30:47;2.00;;;1.60;;
75456;SDS011;64036;48.266;14.192;2023-12-20T11:33:21;1.60;;;1.40;;
75456;SDS011;64036;48.266;14.192;2023-12-20T11:35:52;2.20;;;1.70;;
75456;SDS011;64036;48.266;14.192;2023-12-20T11:38:20;2.00;;;1.60;;
75456;SDS011;64036;48.266;14.192;2023-12-20T11:40:50;1.70;;;1.40;;
75456;SDS011;64036;48.266;14.192;2023-12-20T11:43:35;1.30;;;1.20;;
75456;SDS011;64036;48.266;14.192;2023-12-20T11:46:05;1.80;;;1.40;;
75456;SDS011;64036;48.266;14.192;2023-12-20T11:48:33;1.70;;;1.40;;
75456;SDS011;64036;48.266;14.192;2023-12-20T11:51:09;1.30;;;1.20;;
75456;SDS011;64036;48.266;14.192;2023-12-20T11:53:39;1.50;;;1.40;;
75456;SDS011;64036;48.266;14.192;2023-12-20T11:56:06;1.30;;;1.20;;
75456;SDS011;64036;48.266;14.192;2023-12-20T11:58:33;1.40;;;1.30;;
75456;SDS011;64036;48.266;14.192;2023-12-20T12:00:59;1.80;;;1.40;;
75456;SDS011;64036;48.266;14.192;2023-12-20T12:03:25;1.20;;;1.10;;
75456;SDS011;64036;48.266;14.192;2023-12-20T12:05:51;1.70;;;1.20;;
75456;SDS011;64036;48.266;14.192;2023-12-20T12:08:17;2.10;;;1.30;;
75456;SDS011;64036;48.266;14.192;2023-12-20T12:10:44;1.80;;;1.50;;
75456;SDS011;64036;48.266;14.192;2023-12-20T12:13:09;2.50;;;1.50;;
75456;SDS011;64036;48.266;14.192;2023-12-20T12:15:37;4.30;;;2.10;;
75456;SDS011;64036;48.266;14.192;2023-12-20T12:18:03;3.60;;;1.90;;
75456;SDS011;64036;48.266;14.192;2023-12-20T12:20:29;2.00;;;1.60;;
75456;SDS011;64036;48.266;14.192;2023-12-20T12:23:03;2.00;;;1.40;;
75456;SDS011;64036;48.266;14.192;2023-12-20T12:25:31;1.70;;;1.40;;
75456;SDS011;64036;48.266;14.192;2023-12-20T12:28:01;3.90;;;1.50;;
75456;SDS011;64036;48.266;14.192;2023-12-20T12:30:30;2.00;;;1.40;;
75456;SDS011;64036;48.266;14.192;2023-12-20T12:32:56;1.40;;;1.30;;
75456;SDS011;64036;48.266;14.192;2023-12-20T12:35:23;1.40;;;1.30;;
75456;SDS011;64036;48.266;14.192;2023-12-20T12:37:49;1.80;;;1.40;;
75456;SDS011;64036;48.266;14.192;2023-12-20T12:40:16;1.60;;;1.30;;
75456;SDS011;64036;48.266;14.192;2023-12-20T12:42:43;1.50;;;1.40;;
75456;SDS011;64036;48.266;14.192;2023-12-20T12:45:11;1.70;;;1.40;;
75456;SDS011;64036;48.266;14.192;2023-12-20T12:47:37;1.40;;;1.30;;
75456;SDS011;64036;48.266;14.192;2023-12-20T12:50:04;1.90;;;1.30;;
75456;SDS011;64036;48.266;14.192;2023-12-20T12:52:30;1.80;;;1.40;;
75456;SDS011;64036;48.266;14.192;2023-12-20T12:54:56;2.20;;;1.30;;
75456;SDS011;64036;48.266;14.192;2023-12-20T12:57:22;1.40;;;1.30;;
75456;SDS011;64036;48.266;14.192;2023-12-20T12:59:48;2.10;;;1.50;;
75456;SDS011;64036;48.266;14.192;2023-12-20T13:02:14;2.20;;;1.50;;
75456;SDS011;64036;48.266;14.192;2023-12-20T13:04:41;2.80;;;1.50;;
75456;SDS011;64036;48.266;14.192;2023-12-20T13:07:08;2.40;;;1.70;;
75456;SDS011;64036;48.266;14.192;2023-12-20T13:09:37;2.40;;;1.70;;
75456;SDS011;64036;48.266;14.192;2023-12-20T13:12:04;2.70;;;1.90;;
75456;SDS011;64036;48.266;14.192;2023-12-20T13:14:34;3.40;;;1.80;;
75456;SDS011;64036;48.266;14.192;2023-12-20T13:17:02;3.20;;;1.80;;
75456;SDS011;64036;48.266;14.192;2023-12-20T13:19:29;2.10;;;1.60;;
75456;SDS011;64036;48.266;14.192;2023-12-20T13:21:56;2.80;;;1.80;;
75456;SDS011;64036;48.266;14.192;2023-12-20T13:24:23;3.10;;;2.20;;
75456;SDS011;64036;48.266;14.192;2023-12-20T13:26:49;2.80;;;1.90;;
75456;SDS011;64036;48.266;14.192;2023-12-20T13:29:14;2.50;;;1.80;;
75456;SDS011;64036;48.266;14.192;2023-12-20T13:31:40;2.10;;;1.70;;
75456;SDS011;64036;48.266;14.192;2023-12-20T13:34:06;2.40;;;1.70;;
75456;SDS011;64036;48.266;14.192;2023-12-20T13:36:32;2.50;;;1.70;;
75456;SDS011;64036;48.266;14.192;2023-12-20T13:38:58;3.40;;;1.80;;
75456;SDS011;64036;48.266;14.192;2023-12-20T13:41:24;2.40;;;1.80;;
75456;SDS011;64036;48.266;14.192;2023-12-20T13:43:50;2.40;;;1.70;;
75456;SDS011;64036;48.266;14.192;2023-12-20T13:46:16;2.10;;;1.60;;
75456;SDS011;64036;48.266;14.192;2023-12-20T13:48:42;3.20;;;2.00;;
75456;SDS011;64036;48.266;14.192;2023-12-20T13:51:08;2.80;;;1.90;;
75456;SDS011;64036;48.266;14.192;2023-12-20T13:53:34;4.50;;;1.70;;
75456;SDS011;64036;48.266;14.192;2023-12-20T13:56:00;2.50;;;1.80;;
75456;SDS011;64036;48.266;14.192;2023-12-20T13:58:26;2.80;;;1.80;;
75456;SDS011;64036;48.266;14.192;2023-12-20T14:00:52;2.00;;;1.70;;
75456;SDS011;64036;48.266;14.192;2023-12-20T14:03:17;3.10;;;1.70;;
75456;SDS011;64036;48.266;14.192;2023-12-20T14:05:45;2.40;;;1.70;;
75456;SDS011;64036;48.266;14.192;2023-12-20T14:08:11;2.60;;;1.70;;
75456;SDS011;64036;48.266;14.192;2023-12-20T14:10:36;2.60;;;1.70;;
75456;SDS011;64036;48.266;14.192;2023-12-20T14:13:04;3.40;;;1.90;;
75456;SDS011;64036;48.266;14.192;2023-12-20T14:15:30;3.20;;;1.70;;
75456;SDS011;64036;48.266;14.192;2023-12-20T14:18:04;3.10;;;1.90;;
75456;SDS011;64036;48.266;14.192;2023-12-20T14:20:31;2.50;;;1.80;;
75456;SDS011;64036;48.266;14.192;2023-12-20T14:23:03;3.20;;;2.20;;
75456;SDS011;64036;48.266;14.192;2023-12-20T14:25:29;3.10;;;2.00;;
75456;SDS011;64036;48.266;14.192;2023-12-20T14:27:55;2.40;;;1.90;;
75456;SDS011;64036;48.266;14.192;2023-12-20T14:30:21;2.70;;;1.60;;
75456;SDS011;64036;48.266;14.192;2023-12-20T14:32:47;2.40;;;1.60;;
75456;SDS011;64036;48.266;14.192;2023-12-20T14:35:14;2.90;;;1.80;;
75456;SDS011;64036;48.266;14.192;2023-12-20T14:37:39;2.00;;;1.70;;
75456;SDS011;64036;48.266;14.192;2023-12-20T14:40:06;3.30;;;2.10;;
75456;SDS011;64036;48.266;14.192;2023-12-20T14:42:36;2.20;;;1.70;;
75456;SDS011;64036;48.266;14.192;2023-12-20T14:45:03;2.90;;;1.70;;
75456;SDS011;64036;48.266;14.192;2023-12-20T14:47:29;3.40;;;1.80;;
75456;SDS011;64036;48.266;14.192;2023-12-20T14:49:55;2.60;;;1.90;;
75456;SDS011;64036;48.266;14.192;2023-12-20T14:52:21;4.30;;;2.10;;
75456;SDS011;64036;48.266;14.192;2023-12-20T14:54:47;2.50;;;1.70;;
75456;SDS011;64036;48.266;14.192;2023-12-20T14:57:13;3.00;;;1.90;;
75456;SDS011;64036;48.266;14.192;2023-12-20T14:59:39;2.30;;;1.80;;
75456;SDS011;64036;48.266;14.192;2023-12-20T15:02:05;1.80;;;1.60;;